Ana Sayfa
METAR-TAF:

METAR-TAF

Havaalanları :

Show Low, Arizona, Amerika Birleşik Devletleri

Enlem: 34-16N, Boylam: 110-00W, yükseklik: 1954 m

Güncel hava durumu gözlemi

Rapor saat 06:55 UTC de 29 dakika önce yapıldı.
Rüzgar güney/güneybatıdan 11 kt
Sıcaklık 6°C
Nem 49%
Basınç 1019 hPa
Görüş mesafesi: 16.1 km
Açık gökyüzü

METAR: KSOW 140655Z AUTO 20011KT 10SM CLR 06/M04 A3009 RMK AO2

Saat: 00:24 (07:24 UTC)


TAF: eksik

4.000'den fazla havaalanı için hava durumu gözlemleri ve tahminleri (METAR ve TAF raporları).

Kullanılabilir istasyonlar harita üzerinde sarı ve kırmızı noktalarla gösterilir.

İstasyonun adını görmek için fareyi noktanın üzerinde gezdirin.

Sonrasında hava gözlem ve tahminlerini görmek için tıklayın.

Haritayı değiştirmek için: yaklaştırmak için siyah artı işaretli yeşil düğmeye ve uzaklaştırmak için de eksi işaretli düğmeye hızla tıklayın; bitişik haritalar için yeşil okları kullanın.


METAR-TAF: